Giove Jet — IJNX — position and weather

sailwx.info

Track history (hours):
 
Tides and Currents Weather Stations Pressure Air Temp Water Temp Dewpoint Dewpoint Depression Visibility Wind Speed Wind Dir Waves Ship Positions

Giove Jet

Last reported at 2017-Oct-17 10:39 UTC. Time now 2017-Oct-17 11:36 UTC.
Position N 40°47' E 014°08'.

Length 33 m; draft 1.1 m.

Type: Passenger vessel. MMSI: 247049500.

Date/timePositionNaut miles runAvg speedWind from/ knotsBaromVisibWave heightAir tempDewpointWater temp
2017-Oct-17 10:39N 40°47' E 014°08'427.0
2017-Oct-17 10:30N 40°48' E 014°13'2 0.5
2017-Oct-17 06:45N 40°48' E 014°16'627.1
2017-Oct-17 06:31N 40°46' E 014°08'7 9.5
2017-Oct-17 05:49N 40°46' E 013°59'1125.2
2017-Oct-17 05:23N 40°48' E 014°13'2 0.1
2017-Oct-16 12:38N 40°48' E 014°16'427.6
2017-Oct-16 12:30N 40°47' E 014°11'2 1.1
2017-Oct-16 10:39N 40°47' E 014°09'425.9
2017-Oct-16 10:30N 40°48' E 014°13'1 0.4
2017-Oct-16 06:40N 40°48' E 014°15'426.7
2017-Oct-16 06:30N 40°47' E 014°10'4 0.3
2017-Oct-15 16:52N 40°48' E 014°15'1424.5
2017-Oct-15 16:18N 40°45' E 013°57'1 1.7
2017-Oct-15 16:00N 40°45' E 013°56'9 4.6
2017-Oct-15 13:58N 40°47' E 014°08'7 5.6
2017-Oct-15 12:44N 40°50' E 014°16'419.1
2017-Oct-15 12:31N 40°47' E 014°12'1224.4
2017-Oct-15 12:00N 40°45' E 013°56'0 0.0
2017-Oct-15 11:31N 40°45' E 013°56'5 9.3
2017-Oct-15 11:01N 40°46' E 014°02'1213.8
2017-Oct-15 10:10N 40°50' E 014°17'422.6
2017-Oct-15 10:00N 40°48' E 014°13'5 2.5
2017-Oct-15 08:09N 40°47' E 014°07'428.0
2017-Oct-15 08:00N 40°47' E 014°12'3 0.1
2017-Oct-14 09:18N 40°48' E 014°16'9 8.8
2017-Oct-14 08:16N 40°46' E 014°04'624.2
2017-Oct-14 08:00N 40°47' E 014°12'2 0.1
2017-Oct-13 14:54N 40°48' E 014°14'5 1.4
2017-Oct-13 11:27N 40°47' E 014°08'6 6.6
2017-Oct-13 10:34N 40°48' E 014°16'224.7
2017-Oct-13 10:30N 40°48' E 014°14'7 3.0
2017-Oct-13 08:15N 40°46' E 014°05'625.7
2017-Oct-13 08:00N 40°48' E 014°13'2 1.4
2017-Oct-13 06:43N 40°48' E 014°16'4 0.3
2017-Oct-12 16:22N 40°45' E 014°19'822.9
2017-Oct-12 16:00N 40°38' E 014°23'9 7.5
2017-Oct-12 14:49N 40°46' E 014°18'827.6
2017-Oct-12 14:30N 40°39' E 014°22'1 1.4
2017-Oct-12 14:00N 40°38' E 014°23'611.8
2017-Oct-12 13:30N 40°43' E 014°20'5 5.3
2017-Oct-12 12:29N 40°48' E 014°18'1122.9
2017-Oct-12 12:00N 40°38' E 014°23'0 0.0
2017-Oct-12 11:30N 40°38' E 014°23'0 0.0
2017-Oct-12 11:00N 40°38' E 014°23'0 0.0
2017-Oct-12 10:30N 40°38' E 014°23'0 0.0
2017-Oct-12 10:00N 40°38' E 014°23'3 6.7
2017-Oct-12 09:31N 40°41' E 014°21'6 5.3
2017-Oct-12 08:27N 40°46' E 014°18'920.0
2017-Oct-12 08:00N 40°38' E 014°23'4 7.4
2017-Oct-12 07:31N 40°41' E 014°21'8 9.7
2017-Oct-12 06:40N 40°48' E 014°16'526.6
2017-Oct-12 06:29N 40°47' E 014°10'4 0.1
2017-Oct-10 12:00N 40°48' E 014°15'6 2.4
2017-Oct-10 09:22N 40°47' E 014°07'7 2.6
2017-Oct-10 06:40N 40°48' E 014°16'426.7
2017-Oct-10 06:30N 40°47' E 014°10'4 0.2
2017-Oct-09 06:38N 40°48' E 014°15'326.4
2017-Oct-09 06:31N 40°47' E 014°11'2 0.2
2017-Oct-08 16:45N 40°48' E 014°14'3 1.2
2017-Oct-08 13:52N 40°47' E 014°10'5 4.0
2017-Oct-08 12:39N 40°48' E 014°16'427.2
2017-Oct-08 12:30N 40°47' E 014°11'1 0.4
2017-Oct-08 10:36N 40°47' E 014°10'224.7
2017-Oct-08 10:30N 40°47' E 014°13'  
Track history (hours):
 
Tides and Currents Weather Stations Pressure Air Temp Water Temp Dewpoint Dewpoint Depression Visibility Wind Speed Wind Dir Waves Ship Positions

Giove Jet

Last reported at 2017-Oct-17 10:39 UTC. Time now 2017-Oct-17 11:36 UTC.
Position N 40°47' E 014°08'.

Length 33 m; draft 1.1 m.

Type: Passenger vessel. MMSI: 247049500.

Date/timePositionNaut miles runAvg speedWind from/ knotsBaromVisibWave heightAir tempDewpointWater temp
2017-Oct-17 10:39N 40°47' E 014°08'427.0
2017-Oct-17 10:30N 40°48' E 014°13'2 0.5
2017-Oct-17 06:45N 40°48' E 014°16'627.1
2017-Oct-17 06:31N 40°46' E 014°08'7 9.5
2017-Oct-17 05:49N 40°46' E 013°59'1125.2
2017-Oct-17 05:23N 40°48' E 014°13'2 0.1
2017-Oct-16 12:38N 40°48' E 014°16'427.6
2017-Oct-16 12:30N 40°47' E 014°11'2 1.1
2017-Oct-16 10:39N 40°47' E 014°09'425.9
2017-Oct-16 10:30N 40°48' E 014°13'1 0.4
2017-Oct-16 06:40N 40°48' E 014°15'426.7
2017-Oct-16 06:30N 40°47' E 014°10'4 0.3
2017-Oct-15 16:52N 40°48' E 014°15'1424.5
2017-Oct-15 16:18N 40°45' E 013°57'1 1.7
2017-Oct-15 16:00N 40°45' E 013°56'9 4.6
2017-Oct-15 13:58N 40°47' E 014°08'7 5.6
2017-Oct-15 12:44N 40°50' E 014°16'419.1
2017-Oct-15 12:31N 40°47' E 014°12'1224.4
2017-Oct-15 12:00N 40°45' E 013°56'0 0.0
2017-Oct-15 11:31N 40°45' E 013°56'5 9.3
2017-Oct-15 11:01N 40°46' E 014°02'1213.8
2017-Oct-15 10:10N 40°50' E 014°17'422.6
2017-Oct-15 10:00N 40°48' E 014°13'5 2.5
2017-Oct-15 08:09N 40°47' E 014°07'428.0
2017-Oct-15 08:00N 40°47' E 014°12'3 0.1
2017-Oct-14 09:18N 40°48' E 014°16'9 8.8
2017-Oct-14 08:16N 40°46' E 014°04'624.2
2017-Oct-14 08:00N 40°47' E 014°12'2 0.1
2017-Oct-13 14:54N 40°48' E 014°14'5 1.4
2017-Oct-13 11:27N 40°47' E 014°08'6 6.6
2017-Oct-13 10:34N 40°48' E 014°16'224.7
2017-Oct-13 10:30N 40°48' E 014°14'7 3.0
2017-Oct-13 08:15N 40°46' E 014°05'625.7
2017-Oct-13 08:00N 40°48' E 014°13'2 1.4
2017-Oct-13 06:43N 40°48' E 014°16'4 0.3
2017-Oct-12 16:22N 40°45' E 014°19'822.9
2017-Oct-12 16:00N 40°38' E 014°23'9 7.5
2017-Oct-12 14:49N 40°46' E 014°18'827.6
2017-Oct-12 14:30N 40°39' E 014°22'1 1.4
2017-Oct-12 14:00N 40°38' E 014°23'611.8
2017-Oct-12 13:30N 40°43' E 014°20'5 5.3
2017-Oct-12 12:29N 40°48' E 014°18'1122.9
2017-Oct-12 12:00N 40°38' E 014°23'0 0.0
2017-Oct-12 11:30N 40°38' E 014°23'0 0.0
2017-Oct-12 11:00N 40°38' E 014°23'0 0.0
2017-Oct-12 10:30N 40°38' E 014°23'0 0.0
2017-Oct-12 10:00N 40°38' E 014°23'3 6.7
2017-Oct-12 09:31N 40°41' E 014°21'6 5.3
2017-Oct-12 08:27N 40°46' E 014°18'920.0
2017-Oct-12 08:00N 40°38' E 014°23'4 7.4
2017-Oct-12 07:31N 40°41' E 014°21'8 9.7
2017-Oct-12 06:40N 40°48' E 014°16'526.6
2017-Oct-12 06:29N 40°47' E 014°10'4 0.1
2017-Oct-10 12:00N 40°48' E 014°15'6 2.4
2017-Oct-10 09:22N 40°47' E 014°07'7 2.6
2017-Oct-10 06:40N 40°48' E 014°16'426.7
2017-Oct-10 06:30N 40°47' E 014°10'4 0.2
2017-Oct-09 06:38N 40°48' E 014°15'326.4
2017-Oct-09 06:31N 40°47' E 014°11'2 0.2
2017-Oct-08 16:45N 40°48' E 014°14'3 1.2
2017-Oct-08 13:52N 40°47' E 014°10'5 4.0
2017-Oct-08 12:39N 40°48' E 014°16'427.2
2017-Oct-08 12:30N 40°47' E 014°11'1 0.4
2017-Oct-08 10:36N 40°47' E 014°10'224.7
2017-Oct-08 10:30N 40°47' E 014°13'  

Dump ship's entire track history